Etusivu
METAR-TAF:

METAR-TAF

Lentoasemat :

Helsinki-Vantaan lentoasema

Helsinki, Suomi

Leveyspiiri: 60-19N, Pituuspiiri: 024-58E, korkeus merenpinnasta: 51 m

Tämänhetkinen sää

Tämä raportti tehtiin 39 minuuttia sitten, kello 12.20 UTC
Tuuli 11 kn idästä/koillisesta
Lämpötila 21°C
Kosteus 49%
Ilmanpaine 1017 hPa
Näkyvyys 10 km tai enemmän
ei pilviä alle 1500 m:ssä eikä cumulonimbus-pilviä

METAR: EFHK 271220Z 07011KT CAVOK 21/10 Q1017 NOSIG

Aika: 15:59 (12:59 UTC)

Sääennuste

Tämä raportti tehtiin 1 tunti ja 36 minuuttia sitten, kello 11.23 UTC
Ennuste voimassa 27. päivästä klo 12 UTC - 28. päivään klo 12 UTC
Tuuli 10 kn idästä/koillisesta
Näkyvyys 10 km tai enemmän
ei pilviä alle 1500 m:ssä eikä cumulonimbus-pilviä
Todennäköisyys 30%
28. päivästä klo 01 UTC - 28. päivään klo 06 UTC
Näkyvyys: 1000 m
100 ft:n korkeudessa
sumuhattaroita

TAF: EFHK 271123Z 2712/2812 07010KT CAVOK PROB30 2801/2806 1000 BCFG VV001

Säähavainnot ja -ennusteet yli 4000 lentoasemalta (METAR- ja TAF-raportit).

Käytössä olevat sääasemat on merkitty karttaan keltaisilla ja punaisilla pisteillä.

Aseta hiiri pisteen päälle nähdäksesi sääaseman nimen.

Klikkaa sitten nähdäksesi säähavainnot ja -ennusteet.

Kartan vaihtaminen: klikkaa mustalla rastilla varustettuja vihreitä pisteitä, niin voit zoomata sisään; viivalla varustettua vihreää pistettä, niin voit zoomata ulos tai vihreitä nuolia, niin pääset viereisille kartoille.


METAR-TAF: